Time;durP1;ratioP1;P1;durP2;ratioP2;P2;SDS_P1;SDS_P2;PMS_P1;PMS_P2;Temp;Humidity;BMP_temperature;BMP_pressure;BME280_temperature;BME280_humidity;BME280_pressure;Samples;Min_cycle;Max_cycle;Signal;HPM_P1;HPM_P2
2023/06/13 00:02:10;;;;;;;;;;;;;;;16.70;31.78;100706.56;4991397;27;98073;-67
2023/06/13 00:04:39;;;;;;;;;;;;;;;16.66;31.58;100717.25;4974608;27;99629;-75
2023/06/13 00:07:09;;;;;;;;;;;;;;;16.60;31.75;100715.75;4972007;27;98894;-67
2023/06/13 00:09:35;;;;;;;;;;;;;;;16.56;31.63;100706.56;4973465;27;99310;-67
2023/06/13 00:12:02;;;;;;;;;;;;;;;16.49;31.83;100700.72;4979197;27;99155;-67
2023/06/13 00:14:29;;;;;;;;;;;;;;;16.42;31.84;100701.09;4977835;27;98594;-67
2023/06/13 00:16:55;;;;;;;;;;;;;;;16.37;31.76;100694.97;4964038;27;99664;-67
2023/06/13 00:19:23;;;;;;;;;;;;;;;16.29;31.88;100704.63;4968708;27;99309;-67
2023/06/13 00:21:50;;;;;;;;;;;;;;;16.22;32.00;100692.50;4962993;27;98293;-67
2023/06/13 00:24:16;;;;;;;;;;;;;;;16.17;31.85;100702.38;4960779;27;97842;-75
2023/06/13 00:26:43;;;;;;;;;;;;;;;16.11;32.08;100689.16;4964657;27;97873;-67
2023/06/13 00:29:09;;;;;;;;;;;;;;;16.07;31.98;100690.84;4977596;27;98021;-67
2023/06/13 00:31:36;;;;;;;;;;;;;;;16.02;31.90;100691.75;4979088;27;98225;-75
2023/06/13 00:34:02;;;;;;;;;;;;;;;15.95;31.96;100688.63;4966692;27;98165;-75
2023/06/13 00:36:28;;;;;;;;;;;;;;;15.87;31.63;100687.38;4975971;27;99177;-67
2023/06/13 00:38:58;;;;;;;;;;;;;;;15.83;31.80;100691.78;4969428;27;98501;-76
2023/06/13 00:41:24;;;;;;;;;;;;;;;15.81;32.00;100687.78;4983014;27;97987;-67
2023/06/13 00:43:52;;;;;;;;;;;;;;;15.79;31.82;100674.47;4977280;27;97861;-75
2023/06/13 00:46:28;;;;;;;;;;;;;;;15.79;31.89;100679.91;4969222;27;97876;-75
2023/06/13 00:48:56;;;;;;;;;;;;;;;15.78;31.83;100682.94;4970734;27;98823;-67
2023/06/13 00:51:23;;;;;;;;;;;;;;;15.77;31.94;100675.88;4974882;27;98176;-75
2023/06/13 00:53:49;;;;;;;;;;;;;;;15.77;32.01;100675.88;4986762;27;98177;-75
2023/06/13 00:56:15;;;;;;;;;;;;;;;15.76;31.89;100680.53;4966164;27;98046;-67
2023/06/13 00:58:41;;;;;;;;;;;;;;;15.73;31.83;100675.69;4968658;27;98757;-67
2023/06/13 01:01:09;;;;;;;;;;;;;;;15.69;31.86;100672.75;4963702;27;98267;-75
2023/06/13 01:03:36;;;;;;;;;;;;;;;15.69;32.05;100670.03;4964939;27;98642;-75
2023/06/13 02:03:54;;;;;;;;;;;;;;;15.05;32.14;100654.38;5017633;27;98021;-75
2023/06/13 02:06:20;;;;;;;;;;;;;;;15.02;32.50;100657.69;4987292;27;98237;-66
2023/06/13 02:08:47;;;;;;;;;;;;;;;15.01;32.23;100656.06;4975181;27;98292;-74
2023/06/13 02:11:14;;;;;;;;;;;;;;;14.99;32.53;100661.78;4966954;27;97918;-74
2023/06/13 02:13:40;;;;;;;;;;;;;;;14.96;32.33;100665.06;4967989;27;98052;-66
2023/06/13 02:16:06;;;;;;;;;;;;;;;14.89;32.44;100657.28;4968640;27;98065;-66
2023/06/13 02:18:32;;;;;;;;;;;;;;;14.84;32.29;100659.28;4968324;27;98516;-66
2023/06/13 02:20:59;;;;;;;;;;;;;;;14.77;32.27;100661.53;4962922;27;98060;-74
2023/06/13 02:23:25;;;;;;;;;;;;;;;14.70;32.71;100659.19;4965292;27;98200;-66
2023/06/13 02:25:52;;;;;;;;;;;;;;;14.64;32.45;100666.56;4971510;27;98006;-75
2023/06/13 02:28:19;;;;;;;;;;;;;;;14.60;32.45;100664.72;4961873;27;99834;-66
2023/06/13 02:30:46;;;;;;;;;;;;;;;14.56;32.45;100666.41;4977277;27;98024;-74
2023/06/13 02:33:15;;;;;;;;;;;;;;;14.51;32.35;100669.19;4965505;27;99326;-75
2023/06/13 02:35:43;;;;;;;;;;;;;;;14.46;32.41;100675.41;4967046;27;98057;-74
2023/06/13 02:38:10;;;;;;;;;;;;;;;14.40;32.37;100673.88;4964644;27;98086;-75
2023/06/13 02:40:39;;;;;;;;;;;;;;;14.34;32.52;100664.94;4969141;27;98298;-66
2023/06/13 02:43:05;;;;;;;;;;;;;;;14.30;32.37;100672.06;4981565;27;98285;-66
2023/06/13 02:45:32;;;;;;;;;;;;;;;14.28;32.43;100670.75;4967783;27;98164;-67
2023/06/13 02:47:59;;;;;;;;;;;;;;;14.26;32.45;100676.44;4966519;27;97866;-75
2023/06/13 02:50:26;;;;;;;;;;;;;;;14.25;32.41;100674.81;4969411;27;98223;-66
2023/06/13 02:52:52;;;;;;;;;;;;;;;14.27;32.49;100677.25;4963655;27;98130;-67
2023/06/13 02:55:18;;;;;;;;;;;;;;;14.27;32.64;100672.66;4961624;27;98440;-66
2023/06/13 02:57:45;;;;;;;;;;;;;;;14.26;32.80;100668.28;4969055;27;97995;-66
2023/06/13 03:00:12;;;;;;;;;;;;;;;14.27;32.66;100667.22;4983595;27;98781;-66
2023/06/13 03:02:38;;;;;;;;;;;;;;;14.30;32.62;100671.25;4981452;27;98091;-72
2023/06/13 03:05:08;;;;;;;;;;;;;;;14.30;32.59;100669.34;4966004;27;98258;-66
2023/06/13 03:07:34;;;;;;;;;;;;;;;14.33;32.40;100668.78;4970943;27;98325;-66
2023/06/13 03:10:01;;;;;;;;;;;;;;;14.34;32.35;100672.28;4965495;27;98292;-66
2023/06/13 03:12:27;;;;;;;;;;;;;;;14.32;32.53;100669.88;4968104;27;98285;-66
2023/06/13 03:14:54;;;;;;;;;;;;;;;14.29;32.37;100675.88;4969932;27;98247;-75
2023/06/13 03:17:22;;;;;;;;;;;;;;;14.25;32.25;100667.50;4968159;27;99190;-75
2023/06/13 03:19:50;;;;;;;;;;;;;;;14.21;32.40;100663.75;4931870;27;98766;-67
2023/06/13 03:22:16;;;;;;;;;;;;;;;14.19;32.67;100663.22;4983553;27;99197;-75
2023/06/13 03:24:44;;;;;;;;;;;;;;;14.13;32.34;100658.13;4969387;27;99496;-66
2023/06/13 03:27:12;;;;;;;;;;;;;;;14.06;32.58;100657.66;4969561;27;98552;-66
2023/06/13 03:29:41;;;;;;;;;;;;;;;14.02;32.50;100652.00;4967155;27;98159;-66
2023/06/13 03:32:12;;;;;;;;;;;;;;;14.01;32.68;100666.66;4980348;27;99731;-74
2023/06/13 03:34:39;;;;;;;;;;;;;;;13.99;32.54;100656.09;4971337;27;99160;-67
2023/06/13 03:37:06;;;;;;;;;;;;;;;13.99;32.69;100661.53;4981936;27;98367;-75
2023/06/13 03:39:33;;;;;;;;;;;;;;;14.00;32.46;100662.34;4968469;27;98062;-66
2023/06/13 03:42:00;;;;;;;;;;;;;;;14.00;32.72;100657.72;4967166;27;98752;-67
2023/06/13 03:44:27;;;;;;;;;;;;;;;14.01;32.57;100658.53;4978804;27;98105;-67
2023/06/13 03:46:55;;;;;;;;;;;;;;;14.01;32.58;100658.53;4967363;27;98018;-74
2023/06/13 03:49:21;;;;;;;;;;;;;;;13.95;32.63;100652.34;4959790;27;98781;-67
2023/06/13 03:51:48;;;;;;;;;;;;;;;13.91;32.51;100654.00;4961300;27;98475;-68
2023/06/13 03:54:16;;;;;;;;;;;;;;;13.91;32.61;100656.72;4969144;27;99358;-75
2023/06/13 03:56:42;;;;;;;;;;;;;;;13.92;32.88;100646.69;4964751;27;98263;-66
2023/06/13 03:59:09;;;;;;;;;;;;;;;13.94;32.57;100648.00;4963584;27;98131;-75
2023/06/13 04:01:36;;;;;;;;;;;;;;;14.02;32.68;100632.22;4968558;27;98308;-74
2023/06/13 04:04:03;;;;;;;;;;;;;;;14.10;32.50;100637.03;4964862;27;98873;-67
2023/06/13 04:06:30;;;;;;;;;;;;;;;14.13;32.54;100631.84;4967138;27;109465;-75
2023/06/13 04:08:57;;;;;;;;;;;;;;;14.17;32.33;100632.88;4960676;27;98225;-75
2023/06/13 04:11:26;;;;;;;;;;;;;;;14.21;32.11;100633.13;4964825;27;100970;-77
2023/06/13 04:13:52;;;;;;;;;;;;;;;14.29;32.11;100631.69;4961118;27;99079;-67
2023/06/13 04:16:19;;;;;;;;;;;;;;;14.38;32.45;100633.47;4961882;27;98642;-67
2023/06/13 04:18:46;;;;;;;;;;;;;;;14.47;32.32;100636.38;4960762;27;98036;-67
2023/06/13 04:21:12;;;;;;;;;;;;;;;14.52;32.21;100630.91;4961412;27;98727;-67
2023/06/13 04:23:39;;;;;;;;;;;;;;;14.59;32.25;100634.06;4965139;27;98903;-75
2023/06/13 04:26:05;;;;;;;;;;;;;;;14.63;32.42;100629.69;4963347;27;98142;-75
2023/06/13 04:28:32;;;;;;;;;;;;;;;14.65;32.38;100640.22;4969890;27;98303;-75
2023/06/13 04:31:03;;;;;;;;;;;;;;;14.67;32.09;100633.44;4977480;27;98936;-75
2023/06/13 04:33:29;;;;;;;;;;;;;;;14.71;32.50;100634.47;4964332;27;98051;-75
2023/06/13 04:36:03;;;;;;;;;;;;;;;14.80;32.29;100642.75;4968754;27;98398;-75
2023/06/13 04:38:34;;;;;;;;;;;;;;;14.87;32.49;100642.41;4963940;27;98931;-67
2023/06/13 04:41:01;;;;;;;;;;;;;;;15.00;32.29;100638.97;4967318;27;98411;-75
2023/06/13 04:43:28;;;;;;;;;;;;;;;15.16;32.37;100636.84;4966740;27;98225;-67
2023/06/13 04:46:03;;;;;;;;;;;;;;;15.34;32.18;100646.09;4962297;27;98512;-75
2023/06/13 04:48:30;;;;;;;;;;;;;;;15.45;32.16;100636.69;4967759;27;98181;-66
2023/06/13 04:50:59;;;;;;;;;;;;;;;15.49;32.31;100632.28;4963641;27;99567;-67
2023/06/13 04:53:29;;;;;;;;;;;;;;;15.55;31.91;100631.09;4966530;27;98057;-75
2023/06/13 04:55:57;;;;;;;;;;;;;;;15.64;32.38;100636.66;4962732;27;98096;-76
2023/06/13 04:58:23;;;;;;;;;;;;;;;15.74;32.12;100639.25;4981039;27;98230;-75
2023/06/13 05:00:51;;;;;;;;;;;;;;;15.88;32.16;100639.28;4961776;27;98041;-76
2023/06/13 05:03:18;;;;;;;;;;;;;;;16.02;31.83;100639.31;4968394;27;98061;-75
2023/06/13 05:05:45;;;;;;;;;;;;;;;16.16;31.78;100638.22;4951857;27;98090;-67
2023/06/13 05:08:19;;;;;;;;;;;;;;;16.43;31.86;100634.72;4963652;27;97884;-67
2023/06/13 05:10:45;;;;;;;;;;;;;;;16.87;31.72;100636.03;4948555;27;97912;-67
2023/06/13 05:13:12;;;;;;;;;;;;;;;17.25;31.41;100629.47;4963569;27;98633;-75
2023/06/13 05:15:39;;;;;;;;;;;;;;;17.63;31.28;100624.47;4949425;27;98271;-67
2023/06/13 05:18:12;;;;;;;;;;;;;;;17.98;31.16;100609.16;4944722;27;98204;-67
2023/06/13 05:20:41;;;;;;;;;;;;;;;18.29;31.05;100605.59;4944472;27;98202;-75
2023/06/13 05:23:08;;;;;;;;;;;;;;;18.53;31.13;100603.25;4962205;27;98339;-67
2023/06/13 05:25:35;;;;;;;;;;;;;;;18.75;31.13;100605.09;4964427;27;98138;-76
2023/06/13 05:28:02;;;;;;;;;;;;;;;18.77;31.31;100602.06;4965191;27;98125;-67
2023/06/13 05:30:30;;;;;;;;;;;;;;;18.82;31.33;100602.72;4967010;27;98294;-76
2023/06/13 05:32:57;;;;;;;;;;;;;;;18.86;31.43;100606.41;4962639;27;98531;-75
2023/06/13 05:35:23;;;;;;;;;;;;;;;19.04;31.42;100607.22;4947874;27;98634;-75
2023/06/13 05:37:50;;;;;;;;;;;;;;;19.19;31.40;100600.47;4966410;27;97956;-75
2023/06/13 05:40:16;;;;;;;;;;;;;;;19.23;31.34;100603.38;4952150;27;98472;-67
2023/06/13 05:42:43;;;;;;;;;;;;;;;19.37;31.47;100601.25;4960525;27;98053;-76
2023/06/13 05:45:10;;;;;;;;;;;;;;;19.49;31.38;100598.69;4955699;27;98338;-67
2023/06/13 05:47:36;;;;;;;;;;;;;;;19.64;31.25;100602.84;4953636;27;97963;-75
2023/06/13 05:50:03;;;;;;;;;;;;;;;19.96;31.17;100606.16;4945139;27;98375;-75
2023/06/13 05:52:30;;;;;;;;;;;;;;;20.09;31.24;100592.28;4949067;27;98051;-75
2023/06/13 05:54:56;;;;;;;;;;;;;;;20.18;31.54;100589.50;4946104;27;98303;-67
2023/06/13 05:57:24;;;;;;;;;;;;;;;20.45;31.16;100592.91;4950909;27;97950;-67
2023/06/13 05:59:50;;;;;;;;;;;;;;;20.82;31.17;100583.03;4967449;27;98804;-75
2023/06/13 06:02:16;;;;;;;;;;;;;;;20.75;31.32;100589.06;4947369;27;98799;-76
2023/06/13 06:04:43;;;;;;;;;;;;;;;21.13;31.04;100584.56;4970253;27;98039;-75
2023/06/13 06:07:10;;;;;;;;;;;;;;;21.35;31.07;100586.19;4969064;27;98499;-67
2023/06/13 06:09:36;;;;;;;;;;;;;;;22.14;30.70;100576.00;4969703;27;99384;-76
2023/06/13 06:12:03;;;;;;;;;;;;;;;23.07;30.23;100571.44;4984646;27;98011;-67
2023/06/13 06:14:29;;;;;;;;;;;;;;;24.14;29.73;100573.47;4974867;27;99896;-76
2023/06/13 06:16:55;;;;;;;;;;;;;;;25.13;29.30;100571.41;4984848;27;99880;-76
2023/06/13 06:19:22;;;;;;;;;;;;;;;25.89;29.54;100575.19;4983515;27;98804;-68
2023/06/13 06:21:48;;;;;;;;;;;;;;;26.60;29.54;100572.00;4968668;27;97873;-68
2023/06/13 06:24:14;;;;;;;;;;;;;;;27.89;28.69;100582.63;4978930;27;99224;-69
2023/06/13 06:26:41;;;;;;;;;;;;;;;29.17;28.26;100574.34;4970777;27;98516;-74
2023/06/13 06:29:07;;;;;;;;;;;;;;;29.78;27.77;100594.72;4975177;27;98100;-66
2023/06/13 06:31:34;;;;;;;;;;;;;;;29.88;28.28;100582.06;4969218;27;98262;-66
2023/06/13 06:34:00;;;;;;;;;;;;;;;29.21;29.06;100586.25;4968785;27;98247;-66
2023/06/13 06:36:29;;;;;;;;;;;;;;;30.00;28.34;100587.22;4968073;27;99877;-73
2023/06/13 06:38:56;;;;;;;;;;;;;;;30.49;28.08;100574.47;4984932;27;98129;-73
2023/06/13 06:41:23;;;;;;;;;;;;;;;30.58;28.24;100574.09;4965343;27;98005;-73
2023/06/13 06:43:49;;;;;;;;;;;;;;;30.53;28.73;100566.13;4977307;27;98666;-68
2023/06/13 06:46:16;;;;;;;;;;;;;;;30.39;28.95;100574.53;4968395;27;99256;-67
2023/06/13 06:48:42;;;;;;;;;;;;;;;30.65;28.56;100554.56;4969952;27;98278;-75
2023/06/13 06:51:09;;;;;;;;;;;;;;;30.84;28.85;100556.13;4972159;27;98019;-75
2023/06/13 06:53:35;;;;;;;;;;;;;;;31.29;28.39;100553.53;4983714;27;98593;-68
2023/06/13 06:56:01;;;;;;;;;;;;;;;31.73;28.29;100563.22;4964295;27;98291;-68
2023/06/13 06:58:28;;;;;;;;;;;;;;;32.18;28.13;100550.09;4971885;27;97961;-68
2023/06/13 07:00:54;;;;;;;;;;;;;;;31.86;28.40;100553.19;4968824;27;98298;-67
2023/06/13 07:03:20;;;;;;;;;;;;;;;32.56;27.71;100547.34;4962829;27;98103;-75
2023/06/13 07:05:47;;;;;;;;;;;;;;;33.12;27.51;100541.50;4969356;27;98205;-75
2023/06/13 07:08:15;;;;;;;;;;;;;;;33.12;28.19;100538.72;4985054;27;98068;-75
2023/06/13 07:10:41;;;;;;;;;;;;;;;33.38;27.84;100532.34;4971068;27;99252;-68
2023/06/13 07:13:08;;;;;;;;;;;;;;;34.13;27.16;100533.97;4972645;27;98246;-68
2023/06/13 07:15:35;;;;;;;;;;;;;;;34.33;27.63;100528.38;4969014;27;97971;-75
2023/06/13 07:18:02;;;;;;;;;;;;;;;34.70;27.56;100526.47;4971460;27;98010;-75
2023/06/13 07:20:29;;;;;;;;;;;;;;;35.20;27.21;100519.81;4962477;27;98768;-75
2023/06/13 07:22:57;;;;;;;;;;;;;;;34.80;27.45;100517.09;4977856;27;98541;-75
2023/06/13 07:25:24;;;;;;;;;;;;;;;34.49;27.62;100521.34;4969024;27;98239;-72
2023/06/13 07:27:50;;;;;;;;;;;;;;;34.03;27.96;100511.78;4977456;27;99166;-74
2023/06/13 07:30:17;;;;;;;;;;;;;;;33.37;28.66;100516.03;4963980;27;98139;-67
2023/06/13 07:32:44;;;;;;;;;;;;;;;32.83;29.07;100508.38;4972667;27;98204;-73
2023/06/13 07:35:14;;;;;;;;;;;;;;;32.36;28.96;100504.53;4978282;27;98078;-73
2023/06/13 07:37:40;;;;;;;;;;;;;;;32.08;29.04;100506.41;4979858;27;98301;-74
2023/06/13 07:40:08;;;;;;;;;;;;;;;31.88;28.97;100500.63;4965076;27;98281;-68
2023/06/13 07:42:34;;;;;;;;;;;;;;;33.63;28.00;100504.03;4971674;27;98016;-73
2023/06/13 07:45:02;;;;;;;;;;;;;;;33.20;28.58;100501.09;4957021;27;99264;-73
2023/06/13 07:47:28;;;;;;;;;;;;;;;32.63;28.89;100502.66;4968061;27;98063;-68
2023/06/13 07:49:54;;;;;;;;;;;;;;;31.97;29.46;100506.50;4971198;27;98113;-68
2023/06/13 07:52:21;;;;;;;;;;;;;;;31.27;29.57;100498.25;4973123;27;98730;-67
2023/06/13 07:54:48;;;;;;;;;;;;;;;31.92;28.75;100492.25;4966725;27;98817;-73
2023/06/13 07:57:14;;;;;;;;;;;;;;;33.85;27.29;100504.47;4984640;27;98110;-68
2023/06/13 07:59:41;;;;;;;;;;;;;;;35.42;26.59;100506.91;4988809;27;100169;-73
2023/06/13 08:02:07;;;;;;;;;;;;;;;34.35;27.92;100509.19;4970632;27;98198;-67
2023/06/13 08:04:34;;;;;;;;;;;;;;;33.21;28.61;100495.13;4973739;27;98327;-73
2023/06/13 08:07:01;;;;;;;;;;;;;;;35.46;26.97;100492.03;4968070;27;98533;-73
2023/06/13 08:09:27;;;;;;;;;;;;;;;34.37;27.94;100503.94;4969699;27;99159;-73
2023/06/13 08:11:54;;;;;;;;;;;;;;;35.04;27.35;100487.00;4982962;27;98158;-73
2023/06/13 08:14:21;;;;;;;;;;;;;;;35.74;26.91;100494.13;4968078;27;98472;-67
2023/06/13 08:16:48;;;;;;;;;;;;;;;35.37;27.66;100487.00;4967305;27;99777;-73
2023/06/13 08:19:15;;;;;;;;;;;;;;;35.24;27.76;100492.53;4967127;27;99521;-73
2023/06/13 08:21:42;;;;;;;;;;;;;;;34.61;28.30;100487.09;4971569;27;98053;-73
2023/06/13 08:24:08;;;;;;;;;;;;;;;34.32;28.33;100487.66;4980903;27;98440;-73
2023/06/13 08:26:34;;;;;;;;;;;;;;;34.80;28.00;100482.72;4967866;27;98057;-68
2023/06/13 08:29:03;;;;;;;;;;;;;;;34.54;28.15;100485.25;4975703;27;98403;-73
2023/06/13 08:31:31;;;;;;;;;;;;;;;36.48;26.64;100479.34;4978948;27;98068;-73
2023/06/13 08:34:00;;;;;;;;;;;;;;;35.33;27.63;100478.72;4967114;27;98673;-73
2023/06/13 08:36:27;;;;;;;;;;;;;;;35.98;27.39;100477.91;4983095;27;100608;-73
2023/06/13 08:38:58;;;;;;;;;;;;;;;35.56;27.51;100477.75;4969036;27;98246;-73
2023/06/13 08:41:25;;;;;;;;;;;;;;;34.61;28.18;100479.50;4971343;27;98384;-73
2023/06/13 08:43:52;;;;;;;;;;;;;;;34.16;28.11;100476.41;4973939;27;98568;-68
2023/06/13 08:46:19;;;;;;;;;;;;;;;37.82;25.76;100474.75;4969691;27;98021;-68
2023/06/13 08:48:46;;;;;;;;;;;;;;;37.85;26.19;100476.66;4979885;27;98103;-68
2023/06/13 08:51:16;;;;;;;;;;;;;;;36.38;27.45;100478.38;4966014;27;98139;-74
2023/06/13 08:53:49;;;;;;;;;;;;;;;35.53;27.87;100467.47;4968234;27;98222;-68
2023/06/13 08:56:17;;;;;;;;;;;;;;;35.26;27.97;100470.50;4972401;27;98210;-74
2023/06/13 08:58:44;;;;;;;;;;;;;;;34.24;28.63;100471.47;4979218;27;98043;-67
2023/06/13 09:01:10;;;;;;;;;;;;;;;33.43;29.19;100464.84;4971084;27;98130;-74
2023/06/13 09:03:40;;;;;;;;;;;;;;;32.93;29.42;100459.22;4968725;27;99217;-73
2023/06/13 09:06:07;;;;;;;;;;;;;;;32.84;28.94;100451.34;4991178;27;98945;-74
2023/06/13 09:08:34;;;;;;;;;;;;;;;32.80;28.69;100447.81;4972481;27;98308;-67
2023/06/13 09:11:01;;;;;;;;;;;;;;;32.77;28.81;100459.81;4973968;27;98225;-74
2023/06/13 09:13:28;;;;;;;;;;;;;;;32.55;29.31;100459.31;4971605;27;100226;-74
2023/06/13 09:15:56;;;;;;;;;;;;;;;32.40;28.99;100446.75;4973822;27;99217;-74
2023/06/13 09:18:24;;;;;;;;;;;;;;;33.12;28.66;100460.53;4967893;27;98329;-68
2023/06/13 09:20:51;;;;;;;;;;;;;;;35.11;26.88;100453.22;4973818;27;98113;-68
2023/06/13 09:23:17;;;;;;;;;;;;;;;34.53;27.30;100454.91;4968379;27;98063;-74
2023/06/13 09:25:46;;;;;;;;;;;;;;;34.11;27.80;100458.13;4966895;27;97994;-73
2023/06/13 09:28:39;;;;;;;;;;;;;;;33.83;28.39;100464.97;4980045;27;98139;-74
2023/06/13 09:31:09;;;;;;;;;;;;;;;33.47;28.54;100460.00;4988826;27;99751;-73
2023/06/13 09:33:37;;;;;;;;;;;;;;;32.91;28.63;100459.63;4986423;27;98103;-73
2023/06/13 09:36:07;;;;;;;;;;;;;;;32.63;28.80;100457.22;4986212;27;97909;-68
2023/06/13 09:38:40;;;;;;;;;;;;;;;33.28;27.85;100457.13;4971910;27;98265;-68
2023/06/13 09:41:07;;;;;;;;;;;;;;;33.81;27.39;100453.47;4966224;27;99307;-68
2023/06/13 09:43:34;;;;;;;;;;;;;;;33.74;27.97;100450.00;4968998;27;98314;-68
2023/06/13 09:46:01;;;;;;;;;;;;;;;34.32;27.67;100459.69;4985724;27;98053;-73
2023/06/13 09:48:28;;;;;;;;;;;;;;;35.88;26.26;100448.09;4970371;27;97951;-73
2023/06/13 09:50:54;;;;;;;;;;;;;;;37.67;24.97;100459.63;4967381;27;98218;-68
2023/06/13 09:53:22;;;;;;;;;;;;;;;37.97;25.05;100456.16;4976177;27;97997;-69
2023/06/13 09:55:52;;;;;;;;;;;;;;;38.97;24.73;100460.09;4963292;27;98326;-73
2023/06/13 09:58:19;;;;;;;;;;;;;;;40.18;24.38;100457.81;4980957;27;98114;-73
2023/06/13 10:00:48;;;;;;;;;;;;;;;41.19;23.92;100456.75;4966825;27;98306;-69
2023/06/13 10:03:16;;;;;;;;;;;;;;;41.17;24.38;100450.78;4965804;27;97901;-69
2023/06/13 10:05:43;;;;;;;;;;;;;;;42.42;23.57;100461.31;4967737;27;98237;-69
2023/06/13 10:08:10;;;;;;;;;;;;;;;41.31;24.99;100454.97;4969119;27;97902;-73
2023/06/13 10:10:36;;;;;;;;;;;;;;;41.75;24.70;100452.31;4967473;27;98108;-74
2023/06/13 10:13:05;;;;;;;;;;;;;;;41.13;25.03;100445.31;4982218;27;98996;-74
2023/06/13 10:15:37;;;;;;;;;;;;;;;41.57;25.06;100444.72;4968407;27;98400;-69
2023/06/13 10:18:11;;;;;;;;;;;;;;;41.83;25.03;100444.25;4969471;27;98566;-74
2023/06/13 10:20:38;;;;;;;;;;;;;;;43.07;24.46;100444.34;4968742;27;98001;-74
2023/06/13 10:23:08;;;;;;;;;;;;;;;41.73;25.24;100440.69;4978733;27;116684;-74
2023/06/13 10:25:34;;;;;;;;;;;;;;;42.63;24.60;100434.63;4971165;27;98245;-69
2023/06/13 10:28:05;;;;;;;;;;;;;;;42.23;25.15;100431.63;4978746;27;99601;-68
2023/06/13 10:30:49;;;;;;;;;;;;;;;42.07;24.81;100432.88;4979571;27;98518;-75
2023/06/13 10:33:43;;;;;;;;;;;;;;;43.07;24.62;100442.28;4980525;27;98271;-74
2023/06/13 10:36:24;;;;;;;;;;;;;;;43.04;24.84;100436.81;4999670;27;97928;-69
2023/06/13 10:39:03;;;;;;;;;;;;;;;41.83;25.45;100433.72;4969379;27;98052;-74
2023/06/13 10:42:04;;;;;;;;;;;;;;;40.68;26.22;100432.94;4995365;27;98838;-74
2023/06/13 10:44:37;;;;;;;;;;;;;;;41.19;25.70;100431.31;5001484;27;99134;-73
2023/06/13 10:47:05;;;;;;;;;;;;;;;42.18;25.02;100436.69;4999533;27;98865;-69
2023/06/13 10:49:42;;;;;;;;;;;;;;;43.01;24.53;100438.59;4971780;27;98146;-69
2023/06/13 10:52:15;;;;;;;;;;;;;;;43.52;24.13;100437.25;4975870;27;98068;-68
2023/06/13 10:54:43;;;;;;;;;;;;;;;43.81;23.96;100435.50;4968049;27;98140;-74
2023/06/13 10:57:10;;;;;;;;;;;;;;;41.45;25.72;100432.41;4984049;27;99836;-74
2023/06/13 10:59:40;;;;;;;;;;;;;;;42.71;25.09;100426.53;4969116;27;97997;-75
2023/06/13 11:02:16;;;;;;;;;;;;;;;43.49;24.53;100428.97;4963009;27;99533;-68
2023/06/13 11:04:52;;;;;;;;;;;;;;;43.77;23.99;100418.72;4970926;27;98401;-74
2023/06/13 11:07:21;;;;;;;;;;;;;;;42.48;25.06;100416.09;4968269;27;99982;-69
2023/06/13 11:10:10;;;;;;;;;;;;;;;43.16;24.57;100420.78;4999068;27;98090;-74
2023/06/13 11:12:37;;;;;;;;;;;;;;;43.49;24.46;100424.06;4987923;27;99852;-68
2023/06/13 11:15:05;;;;;;;;;;;;;;;43.11;24.63;100416.59;4966340;27;98185;-74
2023/06/13 11:17:33;;;;;;;;;;;;;;;40.84;26.24;100417.66;4974935;27;99391;-68
2023/06/13 11:20:02;;;;;;;;;;;;;;;41.74;25.51;100416.81;4976242;27;97973;-68
2023/06/13 11:22:31;;;;;;;;;;;;;;;42.73;24.59;100415.50;4968824;27;98844;-69
2023/06/13 11:24:58;;;;;;;;;;;;;;;42.91;24.50;100405.97;4970136;27;98155;-74
2023/06/13 11:27:27;;;;;;;;;;;;;;;40.84;26.16;100394.28;4967005;27;98634;-75
2023/06/13 11:29:54;;;;;;;;;;;;;;;41.42;25.43;100405.09;4973201;27;98257;-74
2023/06/13 11:32:21;;;;;;;;;;;;;;;41.83;25.41;100404.66;4966791;27;99614;-74
2023/06/13 11:34:51;;;;;;;;;;;;;;;41.95;25.02;100397.94;4968771;27;98141;-68
2023/06/13 11:37:44;;;;;;;;;;;;;;;42.00;25.23;100397.25;4981506;27;98096;-68
2023/06/13 11:40:23;;;;;;;;;;;;;;;41.20;25.90;100384.84;4962055;27;98151;-74
2023/06/13 11:42:53;;;;;;;;;;;;;;;40.51;26.12;100394.22;4982041;27;98196;-75
2023/06/13 11:45:23;;;;;;;;;;;;;;;39.70;26.74;100386.22;4968650;27;98684;-75
2023/06/13 11:47:57;;;;;;;;;;;;;;;39.40;26.54;100385.88;4968869;27;98112;-67
2023/06/13 11:50:27;;;;;;;;;;;;;;;38.86;26.57;100400.59;4982121;27;98288;-75
2023/06/13 11:53:07;;;;;;;;;;;;;;;38.12;27.38;100399.38;4967638;27;98090;-69
2023/06/13 11:55:34;;;;;;;;;;;;;;;38.55;26.91;100395.75;4964876;27;98583;-68
2023/06/13 11:58:01;;;;;;;;;;;;;;;38.58;26.48;100394.03;4969928;27;98344;-68
2023/06/13 12:00:29;;;;;;;;;;;;;;;38.75;26.61;100389.72;4967519;27;99090;-75
2023/06/13 12:02:58;;;;;;;;;;;;;;;38.79;26.42;100404.47;4967794;27;98251;-76
2023/06/13 12:05:25;;;;;;;;;;;;;;;38.86;26.25;100386.50;4963052;27;97943;-74
2023/06/13 12:07:52;;;;;;;;;;;;;;;38.85;26.37;100399.81;4958161;27;98086;-75
2023/06/13 12:10:19;;;;;;;;;;;;;;;38.79;26.26;100399.66;4959719;27;98093;-68
2023/06/13 12:12:59;;;;;;;;;;;;;;;38.57;26.44;100395.28;4962838;27;99376;-75
2023/06/13 12:15:27;;;;;;;;;;;;;;;38.62;26.22;100391.88;4984480;27;98613;-74
2023/06/13 12:18:02;;;;;;;;;;;;;;;38.03;26.92;100389.63;4966870;27;98593;-74
2023/06/13 12:20:28;;;;;;;;;;;;;;;37.52;27.11;100377.81;4961994;27;97994;-74
2023/06/13 12:22:56;;;;;;;;;;;;;;;36.90;27.30;100372.59;4963659;27;97995;-75
2023/06/13 12:25:26;;;;;;;;;;;;;;;37.29;26.92;100364.94;4967694;27;98335;-74
2023/06/13 12:27:55;;;;;;;;;;;;;;;37.42;26.39;100362.13;4965697;27;98139;-68
2023/06/13 12:30:22;;;;;;;;;;;;;;;37.51;26.53;100368.59;4973358;27;98075;-67
2023/06/13 12:32:50;;;;;;;;;;;;;;;36.74;27.13;100373.50;4973130;27;98973;-68
2023/06/13 12:35:19;;;;;;;;;;;;;;;35.51;27.85;100369.03;4975026;27;98191;-69
2023/06/13 12:37:58;;;;;;;;;;;;;;;35.02;27.71;100368.25;4966845;27;98304;-67
2023/06/13 12:40:32;;;;;;;;;;;;;;;34.98;27.68;100361.94;4975327;27;97999;-74
2023/06/13 12:43:00;;;;;;;;;;;;;;;35.30;27.06;100364.75;4979329;27;98247;-74
2023/06/13 12:45:30;;;;;;;;;;;;;;;35.42;26.83;100368.84;4960237;27;98510;-75
2023/06/13 12:47:57;;;;;;;;;;;;;;;35.63;26.77;100373.13;4968331;27;98060;-74
2023/06/13 12:50:25;;;;;;;;;;;;;;;35.90;26.98;100365.16;4985479;27;98382;-68
2023/06/13 12:53:11;;;;;;;;;;;;;;;36.16;26.63;100367.25;4963038;27;98298;-74
2023/06/13 12:55:38;;;;;;;;;;;;;;;36.48;26.48;100369.16;4990386;27;98042;-68
2023/06/13 12:58:32;;;;;;;;;;;;;;;35.92;26.85;100364.69;4963629;27;99347;-74
2023/06/13 13:01:00;;;;;;;;;;;;;;;34.69;27.56;100368.22;4974821;27;98528;-67
2023/06/13 13:03:26;;;;;;;;;;;;;;;34.00;28.24;100367.31;4961465;27;98209;-74
2023/06/13 13:05:57;;;;;;;;;;;;;;;34.53;27.15;100357.78;4964043;27;100101;-74
2023/06/13 13:08:23;;;;;;;;;;;;;;;34.96;26.71;100359.56;4979975;27;98038;-74
2023/06/13 13:10:51;;;;;;;;;;;;;;;35.25;26.98;100356.88;4966671;27;98832;-75
2023/06/13 13:13:17;;;;;;;;;;;;;;;34.23;27.75;100358.81;4974473;27;97999;-75
2023/06/13 13:15:43;;;;;;;;;;;;;;;33.78;27.90;100356.50;4977210;27;98126;-74
2023/06/13 13:18:11;;;;;;;;;;;;;;;33.59;27.62;100362.84;4963566;27;98287;-75
2023/06/13 13:20:38;;;;;;;;;;;;;;;32.84;28.10;100358.50;4963775;27;98452;-68
2023/06/13 13:23:05;;;;;;;;;;;;;;;32.85;28.03;100355.25;4978306;27;98297;-74
2023/06/13 13:25:36;;;;;;;;;;;;;;;32.79;27.97;100359.75;4984168;27;98526;-75
2023/06/13 13:28:03;;;;;;;;;;;;;;;33.31;27.34;100367.72;4962856;27;98230;-74
2023/06/13 13:30:30;;;;;;;;;;;;;;;33.51;26.90;100367.78;4965812;27;98106;-75
2023/06/13 13:32:56;;;;;;;;;;;;;;;33.21;27.25;100369.47;4959480;27;98100;-68
2023/06/13 13:35:24;;;;;;;;;;;;;;;33.38;27.25;100372.38;4983711;27;98260;-74
2023/06/13 13:37:50;;;;;;;;;;;;;;;33.26;27.38;100373.78;4967414;27;98943;-76
2023/06/13 13:40:17;;;;;;;;;;;;;;;33.16;27.55;100375.53;4958193;27;98170;-68